VEJS/IXW METAR and TAF weather

Enter ICAO airport designator
Station Type Date Time Source
VEJS METAR 2022/01/19 12:00 UTC NOAA

VEJS 191200Z 00000KT 5000 HZ NSC 20/09 Q1011


Station Type Date Time Source
VEJS Decoded METAR 2022/01/19 12:00 UTC NOAA

Jamshedpur, India (VEJS) 22-49N 086-11E 142M
Jan 19, 2022 - 07:00 AM EST / 2022.01.19 1200 UTC
Wind: Calm:0
Visibility: 3 mile(s):0
Weather: haze
Temperature: 68 F (20 C)
Dew Point: 48 F (9 C)
Relative Humidity: 49%
Pressure (altimeter): 29.85 in. Hg (1011 hPa)
ob: VEJS 191200Z 00000KT 5000 HZ NSC 20/09 Q1011
cycle: 12

Station Type Date Time Source
VEJS TAF 2009/11/01 09:00 UTC NOAA

TAF VEJS 010900Z 0112/0121 36004KT 2500 HZ FEW020 SCT025 SCT100
BECMG 0116/0118 00000KT 2000 HZ FEW018 SCT
BECMG 0119/0121 00000KT 1600 BR

Example: see airport list